Time;durP1;ratioP1;P1;durP2;ratioP2;P2;SDS_P1;SDS_P2;PMS_P1;PMS_P2;Temp;Humidity;BMP_temperature;BMP_pressure;BME280_temperature;BME280_humidity;BME280_pressure;Samples;Min_cycle;Max_cycle;Signal;HPM_P1;HPM_P2
2024/04/11 00:04:40;;;;;;;6.25;3.55;;;;;;;12.49;53.40;101680.50;11313781;25;20033;-63
2024/04/11 00:09:42;;;;;;;5.03;3.50;;;;;;;12.47;54.39;101665.53;11285371;25;20071;-63
2024/04/11 00:14:45;;;;;;;6.22;3.75;;;;;;;12.49;54.24;101663.59;11286245;25;20094;-64
2024/04/11 00:19:46;;;;;;;7.28;3.28;;;;;;;12.38;54.45;101653.66;11293223;25;20018;-67
2024/04/11 00:24:48;;;;;;;6.47;3.13;;;;;;;12.30;53.86;101643.47;11291997;25;20161;-63
2024/04/11 00:29:50;;;;;;;5.55;3.53;;;;;;;12.32;53.70;101662.06;11288526;25;20083;-63
2024/04/11 00:34:53;;;;;;;7.60;3.47;;;;;;;12.20;53.60;101658.38;11292326;25;20767;-62
2024/04/11 00:39:55;;;;;;;4.80;3.70;;;;;;;12.10;53.97;101646.56;11283483;25;20025;-63
2024/04/11 00:44:57;;;;;;;5.40;3.17;;;;;;;12.07;54.38;101649.44;11273935;25;20005;-64
2024/04/11 00:49:59;;;;;;;4.43;3.15;;;;;;;11.91;53.92;101642.41;11289414;25;20017;-64
2024/04/11 00:55:02;;;;;;;7.15;2.88;;;;;;;11.86;53.78;101649.84;11283640;25;20017;-63
2024/04/11 01:00:06;;;;;;;5.15;3.05;;;;;;;11.83;54.14;101644.72;11295551;25;20002;-63
2024/04/11 01:05:10;;;;;;;6.57;2.97;;;;;;;11.82;54.60;101651.00;11295333;25;20006;-63
2024/04/11 01:10:17;;;;;;;6.93;3.65;;;;;;;11.65;54.40;101650.25;11289084;25;20002;-63
2024/04/11 01:15:19;;;;;;;7.18;3.65;;;;;;;11.50;54.90;101637.88;11292891;25;20015;-62
2024/04/11 01:20:21;;;;;;;6.57;3.90;;;;;;;11.35;55.81;101647.69;11298360;25;20018;-62
2024/04/11 01:25:23;;;;;;;5.15;3.75;;;;;;;11.26;56.55;101641.13;11291897;25;20006;-62
2024/04/11 01:30:28;;;;;;;4.97;3.35;;;;;;;11.12;56.47;101643.75;11287280;25;20009;-62
2024/04/11 01:35:31;;;;;;;6.57;3.35;;;;;;;11.12;56.72;101633.09;11290981;25;20013;-62
2024/04/11 01:40:41;;;;;;;7.68;3.33;;;;;;;11.16;57.26;101634.63;11295219;25;20510;-63
2024/04/11 01:45:42;;;;;;;4.95;3.40;;;;;;;11.17;56.95;101641.69;11291956;25;20016;-63
2024/04/11 01:50:46;;;;;;;4.35;3.30;;;;;;;11.14;57.23;101652.53;11288943;25;20018;-62
2024/04/11 01:55:48;;;;;;;5.55;4.15;;;;;;;11.07;57.27;101645.84;11306118;25;20006;-63
2024/04/11 02:00:49;;;;;;;6.75;4.32;;;;;;;11.02;57.22;101654.13;11306949;25;20016;-64
2024/04/11 02:05:51;;;;;;;3.83;3.33;;;;;;;10.90;57.76;101645.06;11304489;25;20112;-63
2024/04/11 02:10:53;;;;;;;5.40;3.35;;;;;;;10.87;57.80;101650.56;11301007;25;20014;-63
2024/04/11 02:15:55;;;;;;;3.50;3.08;;;;;;;10.90;57.59;101652.16;11291287;25;20017;-64
2024/04/11 02:20:58;;;;;;;7.43;4.03;;;;;;;10.82;57.77;101660.63;11294938;25;20100;-63
2024/04/11 02:26:00;;;;;;;5.65;3.45;;;;;;;10.82;57.50;101668.63;11292335;25;20073;-63
2024/04/11 02:31:01;;;;;;;4.40;3.17;;;;;;;10.78;57.78;101667.09;11292836;25;20534;-63
2024/04/11 02:36:06;;;;;;;5.43;3.63;;;;;;;10.77;57.87;101676.03;11293952;25;20536;-63
2024/04/11 02:41:08;;;;;;;5.15;3.17;;;;;;;10.69;57.92;101687.13;11274897;25;20635;-63
2024/04/11 02:46:15;;;;;;;7.13;3.28;;;;;;;10.69;57.75;101699.56;11289122;25;20164;-63
2024/04/11 02:51:21;;;;;;;5.18;3.38;;;;;;;10.55;57.62;101711.03;11290113;25;20387;-62
2024/04/11 02:56:23;;;;;;;6.50;3.25;;;;;;;10.55;57.88;101703.03;11294281;25;20002;-63
2024/04/11 03:01:25;;;;;;;5.63;4.13;;;;;;;10.45;57.76;101710.72;11293561;25;20065;-63
2024/04/11 03:06:27;;;;;;;6.53;4.40;;;;;;;10.38;58.09;101717.31;11286470;25;20007;-63
2024/04/11 03:11:28;;;;;;;6.80;3.95;;;;;;;10.34;58.39;101716.59;11293727;25;20017;-63
2024/04/11 03:16:30;;;;;;;7.85;4.57;;;;;;;10.30;58.51;101714.19;11285156;25;20141;-63
2024/04/11 03:21:34;;;;;;;4.95;4.15;;;;;;;10.28;58.56;101714.25;11291806;25;20129;-63
2024/04/11 03:26:37;;;;;;;5.80;3.22;;;;;;;10.22;58.82;101717.28;11280992;25;20022;-63
2024/04/11 03:31:38;;;;;;;4.60;3.30;;;;;;;10.22;58.65;101722.59;11278652;25;20029;-63
2024/04/11 03:36:44;;;;;;;3.70;2.97;;;;;;;10.09;58.96;101711.78;11279183;25;20017;-64
2024/04/11 03:41:55;;;;;;;5.18;3.13;;;;;;;10.17;59.03;101724.66;11288674;25;20017;-62
2024/04/11 03:46:58;;;;;;;4.15;2.95;;;;;;;10.08;59.01;101723.38;11283257;25;20058;-63
2024/04/11 03:52:00;;;;;;;5.22;3.33;;;;;;;9.88;58.80;101690.75;11288846;25;19997;-63
2024/04/11 03:57:02;;;;;;;5.05;3.42;;;;;;;10.07;59.06;101740.25;11280067;25;20082;-63
2024/04/11 04:02:04;;;;;;;6.18;3.35;;;;;;;10.07;59.09;101741.16;11290620;25;20014;-63
2024/04/11 04:07:07;;;;;;;4.45;3.47;;;;;;;10.07;59.46;101729.63;11271836;25;20014;-62
2024/04/11 04:12:10;;;;;;;5.20;3.40;;;;;;;10.01;58.95;101744.13;11291540;25;20037;-63
2024/04/11 04:17:12;;;;;;;5.07;3.00;;;;;;;9.90;59.46;101744.69;11273714;25;20021;-62
2024/04/11 04:22:16;;;;;;;6.15;3.50;;;;;;;9.81;59.68;101745.19;11310072;25;20003;-63
2024/04/11 04:27:17;;;;;;;4.40;4.00;;;;;;;9.76;59.96;101741.94;11247191;25;20025;-62
2024/04/11 04:32:19;;;;;;;4.68;3.53;;;;;;;9.77;60.05;101743.63;11258400;25;20910;-63
2024/04/11 04:37:20;;;;;;;4.35;3.33;;;;;;;9.78;60.08;101749.84;11291931;25;20266;-63
2024/04/11 04:42:23;;;;;;;5.28;3.33;;;;;;;9.50;60.13;101720.25;11293471;25;20070;-64
2024/04/11 04:47:34;;;;;;;4.82;3.60;;;;;;;9.69;60.31;101760.00;11297427;25;20002;-64
2024/04/11 04:52:38;;;;;;;6.22;3.78;;;;;;;9.63;60.72;101754.16;11314032;25;20021;-63
2024/04/11 04:57:40;;;;;;;13.02;5.82;;;;;;;9.61;60.59;101764.88;11291063;25;20070;-62
2024/04/11 05:02:41;;;;;;;6.18;3.85;;;;;;;9.67;60.61;101777.00;11292082;25;20033;-63
2024/04/11 05:07:44;;;;;;;5.38;3.80;;;;;;;9.68;60.48;101776.03;11286446;25;20177;-62
2024/04/11 05:12:49;;;;;;;6.70;4.15;;;;;;;9.61;60.63;101780.81;11301497;25;20140;-63
2024/04/11 05:17:51;;;;;;;7.13;3.55;;;;;;;9.66;60.83;101786.75;11302622;25;20029;-64
2024/04/11 05:22:56;;;;;;;5.80;3.45;;;;;;;9.57;60.74;101776.59;11300609;25;20041;-62
2024/04/11 05:27:58;;;;;;;5.70;3.58;;;;;;;9.69;60.81;101804.34;11290824;25;20001;-63
2024/04/11 05:33:00;;;;;;;4.78;3.92;;;;;;;9.61;61.02;101796.78;11289292;25;20075;-62
2024/04/11 05:38:08;;;;;;;6.45;4.38;;;;;;;9.54;61.19;101798.03;11294414;25;20650;-62
2024/04/11 05:43:10;;;;;;;5.60;4.35;;;;;;;9.36;61.56;101782.06;11299707;25;20014;-63
2024/04/11 05:48:18;;;;;;;6.80;4.03;;;;;;;9.55;61.66;101803.28;11283277;25;20018;-63
2024/04/11 05:53:20;;;;;;;5.03;3.58;;;;;;;9.58;61.49;101796.06;11265046;25;20006;-64
2024/04/11 05:58:22;;;;;;;7.25;3.70;;;;;;;9.64;61.16;101811.72;11279083;25;20010;-62
2024/04/11 06:03:23;;;;;;;5.07;3.60;;;;;;;9.67;61.48;101812.41;11289579;25;20010;-62
2024/04/11 06:08:25;;;;;;;5.97;4.38;;;;;;;9.75;60.99;101801.38;11292928;25;20017;-62
2024/04/11 06:13:27;;;;;;;6.50;3.13;;;;;;;10.01;61.06;101825.72;11297882;25;19999;-61
2024/04/11 06:18:34;;;;;;;8.43;3.97;;;;;;;10.08;60.17;101816.50;11300955;25;20029;-62
2024/04/11 06:23:37;;;;;;;7.80;4.85;;;;;;;10.20;60.13;101821.16;11285046;25;20063;-62
2024/04/11 06:28:39;;;;;;;7.88;4.82;;;;;;;10.35;59.76;101824.81;11234258;25;20432;-62
2024/04/11 06:33:41;;;;;;;8.02;4.10;;;;;;;10.50;60.03;101811.63;11269676;26;20014;-63
2024/04/11 06:38:43;;;;;;;8.40;4.80;;;;;;;10.65;59.53;101788.59;11266828;25;20045;-60
2024/04/11 06:43:46;;;;;;;20.77;5.57;;;;;;;10.90;58.82;101801.34;11283453;26;20043;-62
2024/04/11 06:48:47;;;;;;;9.20;5.07;;;;;;;11.13;57.93;101800.91;11287482;25;20707;-62
2024/04/11 06:53:49;;;;;;;6.53;4.30;;;;;;;11.38;57.53;101798.59;11285754;25;20684;-62
2024/04/11 06:58:51;;;;;;;11.35;4.72;;;;;;;11.57;56.99;101799.22;11278286;26;20014;-63
2024/04/11 07:03:57;;;;;;;8.52;5.18;;;;;;;11.75;55.92;101799.06;11282437;25;19999;-61
2024/04/11 07:09:03;;;;;;;12.07;4.57;;;;;;;11.94;55.72;101789.00;11285118;26;20002;-61
2024/04/11 07:14:10;;;;;;;6.65;4.30;;;;;;;12.09;55.20;101794.34;11271672;26;20014;-61
2024/04/11 07:19:12;;;;;;;9.38;4.47;;;;;;;12.09;54.81;101789.00;11273195;26;20526;-62
2024/04/11 07:24:13;;;;;;;7.53;4.55;;;;;;;12.34;54.50;101789.19;11277138;25;20010;-62
2024/04/11 07:29:15;;;;;;;7.35;4.38;;;;;;;12.22;54.38;101789.97;11281514;25;20002;-63
2024/04/11 07:34:17;;;;;;;7.72;4.50;;;;;;;12.09;54.68;101784.53;11267993;25;19994;-63
2024/04/11 07:39:20;;;;;;;8.18;4.63;;;;;;;12.14;55.28;101795.75;11262428;26;20006;-64
2024/04/11 07:44:22;;;;;;;6.25;3.70;;;;;;;12.55;54.72;101804.78;11275342;25;20018;-65
2024/04/11 07:49:30;;;;;;;;;;;;;;;12.96;54.32;101816.41;11280138;25;20733;-64
2024/04/11 07:54:35;;;;;;;7.18;3.42;;;;;;;13.21;52.42;101820.97;11262532;26;20490;-64
2024/04/11 07:59:47;;;;;;;8.38;3.30;;;;;;;13.31;51.66;101832.78;11235586;26;20006;-63
2024/04/11 08:04:48;;;;;;;8.15;3.92;;;;;;;13.55;51.72;101840.16;11309527;25;20044;-62
2024/04/11 08:09:55;;;;;;;4.72;3.03;;;;;;;13.87;50.85;101837.94;11321699;25;20093;-63
2024/04/11 08:14:57;;;;;;;5.00;3.28;;;;;;;14.15;50.95;101847.56;11346468;25;20009;-63
2024/04/11 08:20:15;;;;;;;6.82;3.42;;;;;;;14.33;49.43;101848.06;11360742;25;19998;-64
2024/04/11 08:25:18;;;;;;;6.95;3.50;;;;;;;14.58;49.25;101850.84;11359322;25;20136;-66
2024/04/11 08:30:20;;;;;;;9.10;3.45;;;;;;;14.75;48.16;101853.19;11356444;25;20080;-65
2024/04/11 08:35:22;;;;;;;7.05;4.05;;;;;;;14.80;47.46;101855.50;11317330;25;20017;-66
2024/04/11 08:40:24;;;;;;;6.75;2.88;;;;;;;14.80;47.15;101858.19;11307643;25;20009;-66
2024/04/11 08:45:27;;;;;;;5.85;2.80;;;;;;;15.05;46.43;101854.56;11352315;25;20001;-63
2024/04/11 08:50:29;;;;;;;5.63;3.13;;;;;;;15.14;46.15;101850.34;11314702;25;20001;-62
2024/04/11 08:55:31;;;;;;;6.07;2.53;;;;;;;15.30;45.75;101848.25;11295017;25;20016;-64
2024/04/11 09:00:35;;;;;;;8.02;3.08;;;;;;;15.50;44.81;101862.81;11320417;25;20001;-62
2024/04/11 09:05:38;;;;;;;7.43;2.83;;;;;;;15.61;43.17;101847.72;11314158;25;20487;-64
2024/04/11 09:10:40;;;;;;;3.35;2.30;;;;;;;15.79;42.92;101827.53;11354810;25;20013;-65
2024/04/11 09:15:43;;;;;;;4.35;2.38;;;;;;;16.29;41.89;101856.78;11321977;25;20529;-65
2024/04/11 09:20:45;;;;;;;6.33;2.63;;;;;;;16.42;42.37;101846.78;11367773;25;20001;-62
2024/04/11 09:25:47;;;;;;;6.57;2.30;;;;;;;16.57;40.26;101850.06;11362119;25;20218;-64
2024/04/11 09:30:54;;;;;;;6.18;2.05;;;;;;;17.00;39.47;101861.88;11309935;25;20069;-62
2024/04/11 09:35:58;;;;;;;2.78;1.60;;;;;;;17.31;37.07;101865.56;11302615;25;20009;-64
2024/04/11 09:41:04;;;;;;;49.65;7.72;;;;;;;17.53;38.01;101862.88;11364946;25;20139;-63
2024/04/11 09:46:06;;;;;;;5.70;1.90;;;;;;;17.89;36.60;101858.03;11363329;25;20063;-64
2024/04/11 09:51:10;;;;;;;5.75;1.48;;;;;;;18.26;35.26;101861.09;11330143;25;20047;-64
2024/04/11 09:56:15;;;;;;;;;;;;;;;18.20;35.05;101851.72;11356608;26;20009;-65
2024/04/11 10:01:31;;;;;;;3.70;1.30;;;;;;;18.17;35.10;101853.84;11358359;25;19923;-64
2024/04/11 10:06:35;;;;;;;6.60;1.40;;;;;;;17.85;35.15;101838.59;11355776;25;20940;-64
2024/04/11 10:11:42;;;;;;;4.35;1.38;;;;;;;17.60;35.53;101862.22;11367940;25;20004;-65
2024/04/11 10:16:55;;;;;;;8.27;1.38;;;;;;;17.70;34.44;101864.13;11403408;25;20004;-65
2024/04/11 10:22:04;;;;;;;3.30;1.35;;;;;;;17.81;34.67;101856.00;11371394;25;20412;-65
2024/04/11 10:27:19;;;;;;;3.45;1.02;;;;;;;17.80;34.75;101851.59;11439546;25;20024;-66
2024/04/11 10:32:22;;;;;;;2.75;1.20;;;;;;;17.58;33.85;101856.13;11398731;25;20064;-65
2024/04/11 10:37:29;;;;;;;4.10;1.20;;;;;;;17.60;35.22;101870.31;11370607;25;20017;-65
2024/04/11 10:42:37;;;;;;;2.00;0.75;;;;;;;17.62;33.55;101867.50;11406059;25;20013;-64
2024/04/11 10:47:41;;;;;;;4.72;0.90;;;;;;;17.84;33.96;101869.22;11362524;25;19996;-65
2024/04/11 10:52:47;;;;;;;3.00;1.20;;;;;;;17.84;34.82;101866.50;11430245;25;20020;-65
2024/04/11 10:58:08;;;;;;;5.15;1.58;;;;;;;18.02;33.37;101864.94;11387113;25;20013;-64
2024/04/11 11:03:14;;;;;;;14.93;2.83;;;;;;;18.35;33.78;101871.06;11399540;25;20001;-65
2024/04/11 11:08:16;;;;;;;2.17;1.00;;;;;;;18.68;31.93;101857.44;11433260;25;20055;-64
2024/04/11 11:13:18;;;;;;;4.43;1.00;;;;;;;19.30;31.18;101860.81;11434259;25;20020;-64
2024/04/11 11:18:20;;;;;;;2.65;0.80;;;;;;;19.54;31.70;101857.66;11419624;25;20024;-64
2024/04/11 11:23:26;;;;;;;4.63;1.00;;;;;;;19.78;30.86;101838.34;11399231;25;20012;-65
2024/04/11 11:28:28;;;;;;;5.13;1.73;;;;;;;20.45;30.28;101854.47;11400754;25;20001;-65
2024/04/11 11:33:29;;;;;;;7.85;0.90;;;;;;;20.24;31.14;101835.78;11416307;25;20500;-66
2024/04/11 11:38:33;;;;;;;3.47;0.88;;;;;;;20.05;32.00;101834.00;11371802;25;20020;-64
2024/04/11 11:43:43;;;;;;;;;;;;;;;20.02;31.39;101828.06;11426989;25;20020;-65
2024/04/11 11:48:46;;;;;;;2.90;1.10;;;;;;;19.41;32.47;101819.31;11400833;25;20322;-64
2024/04/11 11:53:49;;;;;;;4.53;1.38;;;;;;;19.37;32.95;101826.84;11399364;25;20016;-65
2024/04/11 11:58:51;;;;;;;3.67;0.80;;;;;;;19.77;34.00;101808.72;11429575;25;20186;-65
2024/04/11 12:03:55;;;;;;;4.32;1.88;;;;;;;19.40;33.20;101810.38;11377536;25;20132;-63
2024/04/11 12:09:00;;;;;;;6.05;1.52;;;;;;;18.98;33.33;101801.72;11406409;25;20049;-66
2024/04/11 12:14:02;;;;;;;3.40;1.80;;;;;;;18.85;33.92;101783.06;11417172;25;20096;-65
2024/04/11 12:19:08;;;;;;;3.28;1.50;;;;;;;18.83;34.42;101776.97;11385386;25;20068;-64
2024/04/11 12:24:12;;;;;;;2.42;1.00;;;;;;;19.04;34.92;101791.19;11421056;25;20043;-65
2024/04/11 12:29:18;;;;;;;5.38;1.10;;;;;;;18.95;33.81;101792.06;11429106;25;20000;-63
2024/04/11 12:34:20;;;;;;;6.70;1.13;;;;;;;19.05;34.85;101792.91;11424431;25;20330;-64
2024/04/11 12:39:32;;;;;;;3.27;1.43;;;;;;;18.97;35.18;101787.34;11429695;25;20038;-64
2024/04/11 12:44:38;;;;;;;8.60;4.65;;;;;;;18.97;35.61;101781.97;11378646;25;20008;-64
2024/04/11 12:49:49;;;;;;;3.65;2.13;;;;;;;18.75;35.09;101777.69;11431068;25;20072;-63
2024/04/11 12:54:58;;;;;;;9.18;4.57;;;;;;;18.59;35.49;101780.91;11420667;25;20017;-64
2024/04/11 13:01:03;;;;;;;9.00;4.05;;;;;;;18.71;35.05;101762.75;11431645;25;20005;-65
2024/04/11 13:05:40;;;;;;;8.77;4.78;;;;;;;18.81;35.37;101769.03;11412189;25;20001;-62
2024/04/11 13:10:45;;;;;;;4.10;2.30;;;;;;;18.78;33.25;101768.44;11414021;25;20709;-64
2024/04/11 13:15:49;;;;;;;4.15;1.90;;;;;;;18.79;35.06;101765.59;11353125;25;20446;-65
2024/04/11 13:20:52;;;;;;;3.22;1.00;;;;;;;18.87;35.02;101776.56;11437225;25;20513;-66
2024/04/11 13:25:57;;;;;;;4.97;0.90;;;;;;;18.99;34.94;101768.31;11439631;25;20474;-64
2024/04/11 13:30:59;;;;;;;2.53;1.00;;;;;;;19.23;34.46;101749.88;11432650;25;20004;-66
2024/04/11 13:36:04;;;;;;;3.97;1.00;;;;;;;19.50;35.10;101769.88;11389610;25;20076;-66
2024/04/11 13:46:08;;;;;;;2.10;0.80;;;;;;;19.94;32.54;101767.47;11393240;25;20303;-63
2024/04/11 13:51:15;;;;;;;3.97;0.93;;;;;;;20.36;32.87;101763.44;11356196;25;20014;-64
2024/04/11 13:56:16;;;;;;;2.10;0.80;;;;;;;20.75;31.77;101755.09;11375402;25;20450;-65
2024/04/11 14:01:31;;;;;;;4.13;0.90;;;;;;;20.88;31.39;101748.44;11417434;25;20001;-65
2024/04/11 14:11:53;;;;;;;3.30;0.80;;;;;;;20.51;30.14;101725.91;11433151;25;20013;-64
2024/04/11 14:16:59;;;;;;;4.25;0.93;;;;;;;20.20;29.75;101722.69;11433222;25;20001;-65
2024/04/11 14:22:08;;;;;;;4.10;1.10;;;;;;;20.11;31.63;101711.75;11430648;25;20019;-65
2024/04/11 14:27:10;;;;;;;3.20;0.80;;;;;;;19.90;31.22;101701.22;11415043;25;20015;-67
2024/04/11 14:32:23;;;;;;;3.72;1.27;;;;;;;19.70;31.80;101715.78;11402810;25;20032;-65
2024/04/11 14:42:45;;;;;;;3.05;0.60;;;;;;;19.50;32.86;101699.66;11374413;25;20495;-65
2024/04/11 14:47:53;;;;;;;2.65;0.73;;;;;;;19.47;32.32;101708.03;11376500;25;20008;-64
2024/04/11 14:52:58;;;;;;;3.53;0.65;;;;;;;19.39;32.41;101700.66;11435610;25;20009;-64
2024/04/11 14:58:02;;;;;;;4.45;0.75;;;;;;;19.14;32.92;101698.59;11419067;25;20004;-65
2024/04/11 15:03:04;;;;;;;3.05;0.80;;;;;;;19.02;32.53;101704.16;11431821;25;20001;-64
2024/04/11 15:08:10;;;;;;;2.88;0.75;;;;;;;18.98;33.50;101697.34;11426354;25;20001;-62
2024/04/11 15:13:11;;;;;;;4.38;1.10;;;;;;;18.98;32.28;101694.63;11350664;25;20001;-62
2024/04/11 15:18:13;;;;;;;4.30;1.38;;;;;;;18.99;32.62;101692.78;11424078;25;20422;-63
2024/04/11 15:23:16;;;;;;;4.95;0.90;;;;;;;19.11;32.71;101698.88;11430049;25;20463;-65
2024/04/11 15:28:23;;;;;;;4.60;1.48;;;;;;;19.21;32.21;101688.91;11418992;25;20000;-64
2024/04/11 15:33:29;;;;;;;4.65;0.88;;;;;;;19.18;31.73;101690.03;11429386;25;20072;-64
2024/04/11 15:38:38;;;;;;;2.38;0.70;;;;;;;19.03;33.77;101681.56;11402113;25;20685;-62
2024/04/11 15:43:40;;;;;;;1.33;0.50;;;;;;;18.81;33.04;101660.25;11391986;25;20011;-61
2024/04/11 15:48:56;;;;;;;2.38;0.65;;;;;;;18.90;33.32;101678.31;11423952;25;20581;-61
2024/04/11 15:54:00;;;;;;;4.13;0.90;;;;;;;18.79;33.84;101681.13;11375602;25;20139;-61
2024/04/11 15:59:10;;;;;;;6.25;1.27;;;;;;;18.75;33.92;101682.41;11427970;25;20032;-62
2024/04/11 16:04:15;;;;;;;1.73;0.60;;;;;;;18.64;34.49;101659.97;11398977;25;21097;-61
2024/04/11 16:09:35;;;;;;;2.40;0.60;;;;;;;18.69;34.57;101676.59;11396419;25;20017;-63
2024/04/11 16:14:43;;;;;;;2.67;0.80;;;;;;;18.56;34.73;101673.31;11401193;25;20001;-62
2024/04/11 16:19:45;;;;;;;2.25;0.57;;;;;;;18.39;34.29;101664.09;11400684;25;20131;-63
2024/04/11 16:24:51;;;;;;;3.35;0.82;;;;;;;18.40;34.54;101667.63;11437293;25;20008;-61
2024/04/11 16:29:55;;;;;;;3.25;0.57;;;;;;;18.34;35.12;101664.50;11439032;25;20072;-63
2024/04/11 16:34:58;;;;;;;3.30;1.42;;;;;;;18.32;35.48;101657.56;11439940;25;20112;-62
2024/04/11 16:40:03;;;;;;;2.50;0.93;;;;;;;18.29;35.16;101661.38;11430800;25;20028;-63
2024/04/11 16:50:12;;;;;;;3.63;1.08;;;;;;;18.15;35.55;101653.69;11417993;25;20001;-60
2024/04/11 16:55:31;;;;;;;2.65;1.00;;;;;;;18.25;36.14;101653.72;11399397;25;20009;-61
2024/04/11 17:00:40;;;;;;;3.20;0.70;;;;;;;18.27;36.12;101663.38;11437273;25;20004;-61
2024/04/11 17:05:46;;;;;;;2.60;0.68;;;;;;;18.24;36.50;101660.97;11433641;25;20000;-60
2024/04/11 17:10:48;;;;;;;4.43;0.80;;;;;;;18.28;36.71;101648.03;11387148;25;20012;-61
2024/04/11 17:16:14;;;;;;;2.42;0.80;;;;;;;18.30;37.24;101657.69;11437803;25;20140;-63
2024/04/11 17:21:28;;;;;;;2.88;0.70;;;;;;;18.33;37.28;101648.47;11439763;25;21068;-61
2024/04/11 17:26:30;;;;;;;2.53;0.90;;;;;;;18.27;36.92;101657.09;11406266;25;20074;-61
2024/04/11 17:31:53;;;;;;;2.17;0.73;;;;;;;18.21;37.42;101661.25;11440172;25;20061;-62
2024/04/11 17:36:59;;;;;;;5.47;1.27;;;;;;;18.11;37.55;101668.44;11434245;25;20463;-62
2024/04/11 17:42:13;;;;;;;5.38;1.15;;;;;;;18.06;37.86;101678.75;11413013;25;20008;-62
2024/04/11 17:47:29;;;;;;;;;;;;;;;18.02;38.55;101681.75;11408378;25;20052;-61
2024/04/11 17:57:41;;;;;;;4.55;1.58;;;;;;;17.83;38.37;101684.34;11441852;25;20021;-61
2024/04/11 18:02:46;;;;;;;3.80;1.30;;;;;;;17.67;37.89;101684.88;11399599;25;20370;-62
2024/04/11 18:07:52;;;;;;;3.70;0.90;;;;;;;17.61;38.03;101690.75;11424167;25;20013;-61
2024/04/11 18:12:54;;;;;;;4.70;1.40;;;;;;;17.55;38.33;101694.00;11435232;25;20009;-62
2024/04/11 18:18:03;;;;;;;3.35;1.02;;;;;;;17.47;38.52;101710.81;11436601;25;20009;-62
2024/04/11 18:23:06;;;;;;;2.40;1.10;;;;;;;17.35;38.75;101699.28;11429594;25;19998;-62
2024/04/11 18:28:13;;;;;;;4.82;1.20;;;;;;;17.40;38.64;101707.81;11447106;25;20012;-63
2024/04/11 18:33:22;;;;;;;2.35;1.23;;;;;;;17.36;39.47;101705.53;11453285;25;20017;-62
2024/04/11 18:38:25;;;;;;;3.95;1.33;;;;;;;17.27;39.80;101694.56;11425865;25;20000;-62
2024/04/11 18:43:29;;;;;;;5.03;2.00;;;;;;;17.22;39.63;101696.81;11419243;25;20001;-61
2024/04/11 18:48:37;;;;;;;4.53;1.85;;;;;;;17.22;40.22;101712.94;11405663;25;20071;-62
2024/04/11 18:53:42;;;;;;;3.60;1.48;;;;;;;17.20;39.79;101722.97;11433993;25;20031;-62
2024/04/11 18:58:45;;;;;;;2.60;1.55;;;;;;;17.18;40.60;101711.50;11398218;25;20575;-61
2024/04/11 19:03:46;;;;;;;5.77;2.03;;;;;;;17.14;40.43;101697.47;11434894;25;20536;-62
2024/04/11 19:08:48;;;;;;;2.88;1.70;;;;;;;17.02;41.37;101698.50;11435017;25;20350;-61
2024/04/11 19:13:56;;;;;;;3.20;1.65;;;;;;;17.06;41.58;101717.94;11418383;25;20001;-62
2024/04/11 19:18:59;;;;;;;7.15;2.00;;;;;;;17.03;41.96;101727.09;11414567;25;20028;-61
2024/04/11 19:24:06;;;;;;;5.38;2.25;;;;;;;16.97;42.22;101727.63;11426247;25;20684;-62
2024/04/11 19:29:20;;;;;;;4.40;2.38;;;;;;;16.93;42.23;101742.31;11424728;25;20526;-62
2024/04/11 19:34:26;;;;;;;3.63;2.25;;;;;;;16.90;42.33;101756.00;11389321;25;20642;-63
2024/04/11 19:39:28;;;;;;;5.45;2.83;;;;;;;16.83;42.17;101752.97;11436413;25;20023;-60
2024/04/11 19:44:30;;;;;;;5.40;2.83;;;;;;;16.80;42.99;101753.22;11436060;25;20004;-62
2024/04/11 19:49:34;;;;;;;5.55;2.97;;;;;;;16.64;42.34;101742.88;11426523;25;20016;-62
2024/04/11 19:54:46;;;;;;;6.72;3.70;;;;;;;16.67;42.87;101761.44;11383910;25;20005;-59
2024/04/11 19:59:51;;;;;;;6.20;2.97;;;;;;;16.64;43.01;101758.16;11396237;25;20017;-61
2024/04/11 20:04:56;;;;;;;6.63;3.30;;;;;;;16.60;43.78;101755.72;11407377;25;20005;-62
2024/04/11 20:10:03;;;;;;;7.00;3.80;;;;;;;16.57;43.73;101755.09;11439597;25;20013;-63
2024/04/11 20:15:26;;;;;;;7.22;3.35;;;;;;;16.51;43.87;101759.16;11438707;25;20019;-61
2024/04/11 20:20:31;;;;;;;6.32;3.80;;;;;;;16.47;44.42;101752.34;11329724;25;20018;-62
2024/04/11 20:25:33;;;;;;;5.88;3.97;;;;;;;16.41;44.45;101750.16;11391024;25;20012;-62
2024/04/11 20:30:36;;;;;;;5.32;3.40;;;;;;;16.34;44.72;101740.88;11419701;25;20009;-63
2024/04/11 20:35:45;;;;;;;5.60;4.23;;;;;;;16.32;45.15;101743.69;11358739;25;20009;-62
2024/04/11 20:40:51;;;;;;;5.45;4.10;;;;;;;16.29;45.55;101760.06;11393178;25;20227;-62
2024/04/11 20:45:55;;;;;;;7.22;4.28;;;;;;;16.24;45.74;101757.75;11406181;25;20122;-62
2024/04/11 21:33:48;;;;;;;8.02;4.30;;;;;;;15.85;46.79;101749.22;11432901;25;20012;-61
2024/04/11 21:38:51;;;;;;;6.10;3.80;;;;;;;15.84;46.75;101755.56;11427593;25;20008;-62
2024/04/11 21:43:58;;;;;;;6.20;4.28;;;;;;;15.78;47.03;101753.38;11428430;25;20007;-62
2024/04/11 21:49:01;;;;;;;5.03;3.70;;;;;;;15.75;46.74;101745.53;11392589;25;20005;-60
2024/04/11 21:54:08;;;;;;;;;;;;;;;15.75;46.89;101761.63;11423863;25;20010;-61
2024/04/11 21:59:14;;;;;;;8.40;3.90;;;;;;;15.53;46.51;101731.09;11404900;25;19930;-62
2024/04/11 22:04:18;;;;;;;9.13;4.70;;;;;;;15.61;47.03;101767.22;11428706;25;20027;-62
2024/04/11 22:09:21;;;;;;;7.38;4.28;;;;;;;15.59;47.24;101771.84;11430699;25;20080;-61
2024/04/11 22:14:30;;;;;;;7.07;4.78;;;;;;;15.49;48.06;101767.22;11429430;25;20009;-62
2024/04/11 22:19:33;;;;;;;6.53;4.15;;;;;;;15.33;47.98;101755.94;11386281;25;20139;-61
2024/04/11 22:24:36;;;;;;;5.82;3.80;;;;;;;15.38;48.52;101769.84;11412487;25;20010;-61
2024/04/11 22:29:38;;;;;;;5.43;4.30;;;;;;;15.37;48.29;101768.13;11422539;25;20002;-62
2024/04/11 22:34:43;;;;;;;6.15;3.65;;;;;;;15.31;48.83;101764.09;11430621;25;20016;-62
2024/04/11 22:39:50;;;;;;;5.25;4.25;;;;;;;15.25;49.23;101758.34;11388222;25;20724;-62
2024/04/11 22:45:04;;;;;;;7.22;5.15;;;;;;;15.22;49.59;101769.31;11420238;25;21769;-62
2024/04/11 22:50:11;;;;;;;7.07;4.30;;;;;;;15.14;49.56;101767.22;11351156;25;20002;-60
2024/04/11 22:55:21;;;;;;;7.47;4.78;;;;;;;15.10;49.65;101777.34;11423951;25;20688;-61
2024/04/11 23:00:28;;;;;;;7.28;4.50;;;;;;;15.01;49.96;101767.28;11413159;25;20092;-62
2024/04/11 23:05:37;;;;;;;5.93;4.00;;;;;;;14.97;49.80;101765.81;11388004;25;20025;-62
2024/04/11 23:10:39;;;;;;;5.20;3.55;;;;;;;14.90;49.55;101764.56;11396924;25;20001;-60
2024/04/11 23:15:47;;;;;;;4.47;3.70;;;;;;;14.90;49.47;101765.41;11418425;25;20309;-60
2024/04/11 23:21:06;;;;;;;7.70;4.45;;;;;;;14.80;50.42;101761.69;11407693;25;20000;-62
2024/04/11 23:26:15;;;;;;;9.10;4.07;;;;;;;14.77;50.00;101765.47;11391982;25;20008;-59
2024/04/11 23:31:20;;;;;;;5.57;3.97;;;;;;;14.72;50.71;101767.63;11396837;25;20001;-61
2024/04/11 23:36:23;;;;;;;6.40;4.10;;;;;;;14.71;50.85;101759.69;11429785;25;20013;-61
2024/04/11 23:41:25;;;;;;;6.95;3.50;;;;;;;14.68;51.15;101766.13;11422395;25;20000;-61
2024/04/11 23:46:35;;;;;;;5.35;3.45;;;;;;;14.63;51.70;101773.69;11427586;25;20745;-61
2024/04/11 23:51:45;;;;;;;4.80;3.17;;;;;;;14.53;52.13;101761.88;11425164;25;20019;-61
2024/04/11 23:56:58;;;;;;;4.85;3.20;;;;;;;14.45;52.50;101754.41;11395104;25;20028;-61
